• Join FlightAware (Why Join?)
  • Login
  • US Flag 
10:16PM EDT


 

Airport Tracker/Info


-or-


 

Live Flight TrackerFlight Track Log ✈ AMF1990 ✈ 19-Dec-2013 ✈ KSAT - KCRP

Flight Track Log - Related Links

Times and Time Zones

All times are in EST time to prevent confusion due to time zone crossing. See the AMF1990 flight status page for this flight to view local times or setup timezone preferences in your user account.

Time Position Orientation Groundspeed Altitude Reporting Facility
EST Latitude Longitude Course Direction KTS MPH feet Rate Location/Type
08:36AM 29.5247 -98.4636 154° Southeast 128 147 1,900  Level Houston Center
08:37AM 29.5003 -98.4497 154° Southeast 133 153 3,500 2,280 Climbing Houston Center
08:38AM 29.4669 -98.4297 152° Southeast 147 169 5,900 2,520 Climbing Houston Center
08:38AM 29.4683 -98.4303 341° North 141 162 5,900 1,980 Level Houston Center
08:38AM 29.4361 -98.4144 157° South 167 192 7,500 1,980 Climbing Houston Center
08:39AM 29.4228 -98.4100 164° South 163 188 8,000 2,220 Climbing Houston Center
08:39AM 29.3864 -98.3986 165° South 180 207 9,800 2,220 Climbing Houston Center
08:40AM 29.3756 -98.3936 158° South 175 201 10,300 1,680 Climbing Houston Center
08:41AM 29.3294 -98.3856 171° South 170 196 12,000 1,320 Climbing Houston Center
08:42AM 29.2728 -98.3747 171° South 188 216 13,100 480 Climbing Houston Center
08:43AM 29.2094 -98.3547 165° South 234 269 13,000 -60 Descending Houston Center
08:44AM 29.1408 -98.3342 165° South 238 274 13,000  Level Houston Center
08:45AM 29.0764 -98.3217 170° South 234 269 13,000  Level Houston Center
08:46AM 29.0108 -98.3044 167° South 237 273 13,000  Level Houston Center
08:47AM 28.9406 -98.2833 165° South 243 280 13,000  Level Houston Center
08:48AM 28.8778 -98.2631 164° South 238 274 13,000  Level Houston Center
08:49AM 28.8086 -98.2411 164° South 235 270 13,000  Level Houston Center
08:50AM 28.7436 -98.2200 164° South 239 275 13,000 -60 Level Houston Center
08:51AM 28.6786 -98.2006 165° South 251 289 12,900 -60 Descending Houston Center
08:52AM 28.6128 -98.1806 165° South 244 281 12,900  Level Houston Center
08:53AM 28.5472 -98.1603 165° South 238 274 12,900  Level Houston Center
08:54AM 28.4864 -98.1256 153° Southeast 243 280 13,000 -420 Climbing Houston Center
08:55AM 28.4314 -98.0622 135° Southeast 256 295 12,100 -840 Descending Houston Center
08:55AM 28.4208 -98.0486 131° Southeast 261 300 12,000 -900 Descending Houston Center
08:56AM 28.3811 -98.0036 135° Southeast 258 297 11,200 -1,020 Descending Houston Center
08:57AM 28.3297 -97.9419 133° Southeast 253 291 10,200 -1,020 Descending Houston Center
08:57AM 28.3294 -97.9422 221° Southwest 252 290 10,200 -1,380 Level Houston Center
08:58AM 28.2769 -97.8992 144° Southeast 240 276 8,800 -1,380 Descending Houston Center
08:58AM 28.2733 -97.8967 149° Southeast 250 288 8,800 -1,440 Level Houston Center
08:59AM 28.2181 -97.8594 149° Southeast 228 262 7,400 -1,260 Descending Houston Center
08:59AM 28.2189 -97.8592 16° North 232 267 7,500 -1,200 Climbing Houston Center
09:00AM 28.1697 -97.8208 145° Southeast 224 258 6,200 -1,320 Descending Houston Center
09:00AM 28.1664 -97.8172 136° Southeast 224 258 6,200 -1,140 Level Houston Center
09:01AM 28.1172 -97.7828 148° Southeast 207 238 5,100 -1,080 Descending Houston Center
09:01AM 28.1164 -97.7806 113° Southeast 214 246 5,100 -900 Level Houston Center
09:02AM 28.0722 -97.7497 148° Southeast 190 219 4,100 -1,140 Descending Houston Center
09:03AM 28.0331 -97.7231 149° Southeast 171 197 3,000 -1,080 Descending Houston Center
09:03AM 28.0292 -97.7208 153° Southeast 180 207 3,000 -120 Level Houston Center
09:04AM 27.9906 -97.6925 147° Southeast 171 197 2,900 -420 Descending Houston Center
09:05AM 27.9508 -97.6656 149° Southeast 166 191 2,200 -540 Descending Houston Center
09:06AM 27.9147 -97.6394 147° Southeast 164 189 2,000 -300 Descending Houston Center
09:06AM 27.9128 -97.6372 135° Southeast 163 188 1,900  Descending Houston Center
09:07AM 27.8778 -97.6089 144° Southeast 157 181 2,000  Climbing Houston Center
09:08AM 27.8697 -97.6031 147° Southeast 160 184 1,900 -300 Descending Houston Center
09:08AM 27.8411 -97.5808 146° Southeast 153 176 1,700 -300 Descending Houston Center
09:09AM 27.8347 -97.5758 145° Southeast 155 178 1,600 -600 Descending Houston Center
09:09AM 27.8150 -97.5536 135° Southeast 111 128 1,100 -720 Descending Houston Center
09:10AM 27.8097 -97.5506 153° Southeast 132 152 900 -600 Descending Houston Center
09:10AM 27.7939 -97.5328 135° Southeast 104 120 600 -480 Descending Houston Center
09:11AM 27.7878 -97.5272 141° Southeast 113 130 400 -600 Descending Houston Center
09:13AM 27.7667 -97.5000 144° Southeast  Level FlightAware Approximate